createdAt,value
2022-09-26T00:01:43.945Z,5.40
2022-09-26T00:04:17.326Z,6.00
2022-09-26T00:06:49.338Z,5.38
2022-09-26T00:09:19.188Z,3.15
2022-09-26T00:11:48.278Z,2.92
2022-09-26T00:14:19.711Z,3.28
2022-09-26T00:16:48.806Z,3.17
2022-09-26T00:19:18.325Z,4.07
2022-09-26T00:21:48.390Z,2.75
2022-09-26T00:24:17.093Z,4.60
2022-09-26T00:26:45.690Z,5.00
2022-09-26T00:29:14.908Z,3.45
2022-09-26T00:31:45.493Z,4.60
2022-09-26T00:34:14.670Z,3.40
2022-09-26T00:36:43.500Z,4.97
2022-09-26T00:39:15.857Z,2.08
2022-09-26T00:41:44.560Z,4.68
2022-09-26T00:44:41.101Z,3.80
2022-09-26T00:47:22.225Z,1.60
2022-09-26T00:49:53.730Z,3.38
2022-09-26T00:52:25.939Z,2.80
2022-09-26T00:54:57.955Z,4.07
2022-09-26T00:57:32.449Z,4.45
2022-09-26T01:00:03.397Z,3.35
2022-09-26T01:02:32.274Z,5.38
2022-09-26T01:05:02.084Z,3.13
2022-09-26T01:07:31.503Z,4.15
2022-09-26T01:10:05.453Z,1.80
2022-09-26T01:12:36.152Z,2.33
2022-09-26T01:15:07.313Z,2.63
2022-09-26T01:17:37.813Z,2.47
2022-09-26T01:20:27.973Z,3.85
2022-09-26T01:23:37.775Z,5.38
2022-09-26T01:26:37.337Z,2.13
2022-09-26T01:29:36.089Z,5.50
2022-09-26T01:32:32.781Z,2.72
2022-09-26T01:35:09.924Z,5.13
2022-09-26T01:37:47.529Z,4.72
2022-09-26T01:40:24.499Z,3.55
2022-09-26T01:43:05.122Z,5.38
2022-09-26T01:45:43.383Z,6.75
2022-09-26T01:48:18.478Z,2.25
2022-09-26T01:50:52.325Z,2.75
2022-09-26T01:53:24.437Z,3.05
2022-09-26T01:56:00.446Z,3.10
2022-09-26T01:58:34.048Z,2.95
2022-09-26T02:01:09.753Z,2.05
2022-09-26T02:03:45.214Z,2.97
2022-09-26T02:06:19.398Z,3.55
2022-09-26T02:08:52.257Z,4.30
2022-09-26T02:11:24.690Z,3.63
2022-09-26T02:13:59.900Z,6.40
2022-09-26T02:16:32.832Z,3.55
2022-09-26T02:19:08.783Z,3.17
2022-09-26T02:21:37.762Z,3.90
2022-09-26T02:24:06.947Z,2.60
2022-09-26T02:26:35.560Z,5.38
2022-09-26T02:29:04.554Z,5.20
2022-09-26T02:31:37.822Z,4.43
2022-09-26T02:34:07.939Z,5.50
2022-09-26T02:36:36.701Z,3.85
2022-09-26T02:39:06.175Z,6.05
2022-09-26T02:42:10.929Z,3.10
2022-09-26T02:44:53.161Z,5.45
2022-09-26T02:47:48.187Z,3.33
2022-09-26T02:50:37.410Z,3.35
2022-09-26T02:53:19.030Z,2.05
2022-09-26T02:56:05.439Z,3.83
2022-09-26T02:58:42.350Z,4.22
2022-09-26T03:01:27.246Z,3.15
2022-09-26T03:04:03.382Z,4.43
2022-09-26T03:06:37.117Z,4.43
2022-09-26T03:09:07.408Z,7.35
2022-09-26T03:11:37.729Z,4.63
2022-09-26T03:14:06.958Z,7.75
2022-09-26T03:16:37.954Z,5.28
2022-09-26T03:19:11.082Z,5.07
2022-09-26T03:21:41.157Z,7.30
2022-09-26T03:24:10.469Z,4.55
2022-09-26T03:26:40.319Z,5.63
2022-09-26T03:29:09.765Z,4.28
2022-09-26T03:31:38.441Z,4.80
2022-09-26T03:34:08.433Z,4.53
2022-09-26T03:36:41.204Z,6.50
2022-09-26T03:39:11.933Z,4.07
2022-09-26T03:41:51.285Z,3.00
2022-09-26T03:44:23.077Z,4.72
2022-09-26T03:47:11.670Z,3.63
2022-09-26T03:49:42.870Z,3.38
2022-09-26T03:52:14.649Z,3.72
2022-09-26T03:54:45.147Z,4.47
2022-09-26T03:57:14.098Z,4.20
2022-09-26T03:59:49.766Z,4.88
2022-09-26T04:02:19.893Z,5.72
2022-09-26T04:04:53.360Z,4.80
2022-09-26T04:07:23.369Z,6.40
2022-09-26T04:09:52.068Z,4.38
2022-09-26T04:12:21.154Z,3.40
2022-09-26T04:14:49.615Z,6.75
2022-09-26T04:17:18.820Z,6.03
2022-09-26T04:19:48.964Z,8.95
2022-09-26T04:22:17.566Z,5.35
2022-09-26T04:24:48.890Z,5.38
2022-09-26T04:27:18.230Z,7.20
2022-09-26T04:29:47.653Z,5.68
2022-09-26T04:32:31.519Z,7.85
2022-09-26T04:35:18.641Z,6.55
2022-09-26T04:37:47.512Z,6.63
2022-09-26T04:40:18.175Z,6.15
2022-09-26T04:43:00.907Z,7.80
2022-09-26T04:45:29.559Z,10.10
2022-09-26T04:47:58.109Z,7.53
2022-09-26T04:50:26.750Z,8.50
2022-09-26T04:53:09.357Z,7.13
2022-09-26T04:55:48.862Z,7.93
2022-09-26T04:58:18.530Z,10.48
2022-09-26T05:00:49.920Z,8.38
2022-09-26T05:03:29.500Z,7.40
2022-09-26T05:05:59.543Z,8.20
2022-09-26T05:08:28.229Z,9.52
2022-09-26T05:10:58.898Z,7.05
2022-09-26T05:13:28.017Z,8.30
2022-09-26T05:15:59.481Z,8.40
2022-09-26T05:18:30.193Z,7.80
2022-09-26T05:21:01.139Z,7.63
2022-09-26T05:23:47.189Z,9.02
2022-09-26T05:26:21.153Z,10.82
2022-09-26T05:28:53.127Z,7.70
2022-09-26T05:31:29.045Z,9.25
2022-09-26T05:33:57.719Z,6.63
2022-09-26T05:36:27.006Z,8.77
2022-09-26T05:38:55.597Z,7.60
2022-09-26T05:41:28.105Z,8.73
2022-09-26T05:43:57.197Z,8.85
2022-09-26T05:46:28.370Z,7.78
2022-09-26T05:48:59.321Z,6.60
2022-09-26T05:51:29.302Z,10.50
2022-09-26T05:53:57.987Z,6.50
2022-09-26T05:56:29.831Z,6.68
2022-09-26T05:59:16.846Z,5.32
2022-09-26T06:02:06.378Z,6.90
2022-09-26T06:05:01.308Z,5.78
2022-09-26T06:07:48.287Z,6.10
2022-09-26T06:10:34.172Z,7.32
2022-09-26T06:13:04.760Z,6.40
2022-09-26T06:15:39.837Z,5.63
2022-09-26T06:18:08.436Z,6.65
2022-09-26T06:20:36.976Z,7.70
2022-09-26T06:23:05.672Z,7.60
2022-09-26T06:25:35.541Z,7.63
2022-09-26T06:28:06.905Z,8.85
2022-09-26T06:30:38.165Z,8.30
2022-09-26T06:33:27.700Z,6.38
2022-09-26T06:36:03.633Z,6.00
2022-09-26T06:38:36.332Z,4.70
2022-09-26T06:41:07.748Z,7.93
2022-09-26T06:43:37.842Z,5.65
2022-09-26T06:46:25.019Z,7.80
2022-09-26T06:48:59.632Z,7.70
2022-09-26T06:51:48.862Z,6.90
2022-09-26T06:54:18.604Z,8.73
2022-09-26T06:56:47.381Z,6.78
2022-09-26T06:59:17.653Z,6.55
2022-09-26T07:01:54.296Z,5.38
2022-09-26T07:04:41.439Z,5.78
2022-09-26T07:07:19.106Z,6.60
2022-09-26T07:09:47.633Z,6.93
2022-09-26T07:12:37.595Z,4.80
2022-09-26T07:15:09.281Z,6.03
2022-09-26T07:17:37.809Z,6.32
2022-09-26T07:20:18.321Z,5.07
2022-09-26T07:23:06.625Z,6.88
2022-09-26T07:25:35.430Z,6.35
2022-09-26T07:28:04.524Z,6.45
2022-09-26T07:30:39.747Z,5.95
2022-09-26T07:33:14.504Z,4.40
2022-09-26T07:35:49.647Z,5.25
2022-09-26T07:38:18.278Z,5.60
2022-09-26T07:40:47.614Z,3.78
2022-09-26T07:43:20.158Z,4.47
2022-09-26T07:46:11.661Z,4.60
2022-09-26T07:49:00.226Z,4.43
2022-09-26T07:51:49.678Z,4.05
2022-09-26T07:54:21.947Z,4.13
2022-09-26T07:57:09.252Z,5.95
2022-09-26T07:59:56.475Z,4.13
2022-09-26T08:02:46.823Z,4.93
2022-09-26T08:05:19.945Z,4.25
2022-09-26T08:07:50.048Z,3.15
2022-09-26T08:10:47.338Z,4.25
2022-09-26T08:13:25.954Z,3.63
2022-09-26T08:16:23.937Z,9.90
2022-09-26T08:19:01.641Z,2.47
2022-09-26T08:21:30.910Z,2.47
2022-09-26T08:24:01.264Z,2.22
2022-09-26T08:26:56.998Z,3.50
2022-09-26T08:29:32.152Z,1.98
2022-09-26T08:32:03.379Z,4.60
2022-09-26T08:34:36.500Z,1.77
2022-09-26T08:37:27.842Z,2.20
2022-09-26T08:40:15.099Z,3.17
2022-09-26T08:43:29.959Z,2.95
2022-09-26T08:46:45.097Z,2.70
2022-09-26T08:50:00.954Z,2.10
2022-09-26T08:52:36.226Z,5.28
2022-09-26T08:55:12.569Z,2.88
2022-09-26T08:57:45.391Z,1.58
2022-09-26T09:00:20.613Z,1.83
2022-09-26T09:03:08.109Z,1.73
2022-09-26T09:05:41.201Z,2.42
2022-09-26T09:08:16.322Z,3.22
2022-09-26T09:11:10.310Z,4.43
2022-09-26T09:13:56.940Z,3.13
2022-09-26T09:16:51.414Z,4.43
2022-09-26T09:19:48.750Z,1.50
2022-09-26T09:22:53.260Z,3.35
2022-09-26T09:25:32.409Z,1.77
2022-09-26T09:28:14.132Z,2.38
2022-09-26T09:30:46.369Z,2.78
2022-09-26T09:33:33.444Z,2.25
2022-09-26T09:36:28.126Z,2.25
2022-09-26T09:39:24.893Z,2.42
2022-09-26T09:42:06.455Z,3.17
2022-09-26T09:44:46.955Z,2.92
2022-09-26T09:47:17.731Z,5.13
2022-09-26T09:49:49.271Z,5.03
2022-09-26T09:52:32.032Z,4.25
2022-09-26T09:55:14.175Z,2.92
2022-09-26T09:57:56.994Z,5.45
2022-09-26T10:00:27.635Z,2.67
2022-09-26T10:03:25.703Z,4.18
2022-09-26T10:05:59.628Z,2.60
2022-09-26T10:08:37.048Z,3.17
2022-09-26T10:11:23.033Z,4.72
2022-09-26T10:14:03.086Z,4.55
2022-09-26T10:17:31.210Z,4.28
2022-09-26T10:20:36.194Z,2.55
2022-09-26T10:23:13.992Z,3.47
2022-09-26T10:25:48.602Z,2.97
2022-09-26T10:28:31.068Z,4.70
2022-09-26T10:31:08.928Z,4.68
2022-09-26T10:33:57.815Z,5.00
2022-09-26T10:36:32.775Z,4.50
2022-09-26T10:39:23.162Z,2.47
2022-09-26T10:42:00.930Z,2.42
2022-09-26T10:44:34.234Z,2.75
2022-09-26T10:47:14.093Z,4.22
2022-09-26T10:50:16.448Z,2.65
2022-09-26T10:53:08.862Z,3.17
2022-09-26T10:55:43.706Z,2.88
2022-09-26T10:58:19.094Z,4.32
2022-09-26T11:00:50.714Z,2.05
2022-09-26T11:03:24.927Z,4.85
2022-09-26T11:06:35.921Z,2.60
2022-09-26T11:09:21.222Z,3.35
2022-09-26T11:12:25.534Z,2.22
2022-09-26T11:14:59.169Z,2.97
2022-09-26T11:17:47.754Z,3.13
2022-09-26T11:20:41.642Z,2.20
2022-09-26T11:23:18.578Z,2.65
2022-09-26T11:25:57.947Z,3.50
2022-09-26T11:28:34.325Z,4.32
2022-09-26T11:31:26.741Z,4.18
2022-09-26T11:34:21.775Z,4.05
2022-09-26T11:37:14.628Z,4.65
2022-09-26T11:39:59.680Z,3.53
2022-09-26T11:42:39.797Z,2.75
2022-09-26T11:45:16.578Z,2.58
2022-09-26T11:48:29.957Z,4.22
2022-09-26T11:51:34.516Z,2.75
2022-09-26T11:54:17.862Z,2.80
2022-09-26T11:57:00.785Z,2.15
2022-09-26T11:59:43.692Z,3.33
2022-09-26T12:02:31.945Z,2.10
2022-09-26T12:05:13.695Z,2.42
2022-09-26T12:07:49.614Z,3.80
2022-09-26T12:10:33.077Z,3.08
2022-09-26T12:13:13.319Z,1.70
2022-09-26T12:15:51.249Z,2.67
2022-09-26T12:18:26.677Z,3.17
2022-09-26T12:21:08.437Z,3.70
2022-09-26T12:23:44.832Z,4.50
2022-09-26T12:26:21.587Z,3.90
2022-09-26T12:29:05.444Z,2.90
2022-09-26T12:31:47.601Z,4.65
2022-09-26T12:34:37.566Z,2.47
2022-09-26T12:37:19.913Z,1.98
2022-09-26T12:40:10.273Z,2.83
2022-09-26T12:43:04.319Z,1.60
2022-09-26T12:45:57.078Z,2.10
2022-09-26T12:48:38.316Z,1.30
2022-09-26T12:51:19.835Z,4.47
2022-09-26T12:54:14.170Z,2.70
2022-09-26T12:56:52.501Z,3.78
2022-09-26T12:59:38.514Z,2.45
2022-09-26T13:02:28.685Z,3.20
2022-09-26T13:05:24.628Z,2.95
2022-09-26T13:08:03.175Z,3.40
2022-09-26T13:10:40.900Z,3.85
2022-09-26T13:13:45.141Z,2.25
2022-09-26T13:16:26.361Z,1.50
2022-09-26T13:18:59.988Z,1.10
2022-09-26T13:21:41.987Z,2.17
2022-09-26T13:24:14.163Z,2.22
2022-09-26T13:26:46.803Z,2.72
2022-09-26T13:29:22.128Z,2.08
2022-09-26T13:31:55.910Z,3.58
2022-09-26T13:34:29.109Z,5.25
2022-09-26T13:37:00.305Z,3.97
2022-09-26T13:39:36.206Z,5.60
2022-09-26T13:42:10.910Z,6.40
2022-09-26T13:45:04.044Z,4.07
2022-09-26T13:47:39.017Z,4.18
2022-09-26T13:50:19.872Z,3.15
2022-09-26T13:52:57.945Z,5.88
2022-09-26T13:55:30.022Z,4.00
2022-09-26T13:58:07.004Z,3.90
2022-09-26T14:00:53.026Z,6.93
2022-09-26T14:03:43.756Z,5.75
2022-09-26T14:06:33.432Z,4.93
2022-09-26T14:09:25.149Z,10.70
2022-09-26T14:12:34.895Z,6.18
2022-09-26T14:15:22.749Z,6.10
2022-09-26T14:18:15.349Z,5.45
2022-09-26T14:20:59.110Z,7.38
2022-09-26T14:23:43.309Z,4.75
2022-09-26T14:26:14.152Z,8.23
2022-09-26T14:28:52.926Z,5.88
2022-09-26T14:31:39.640Z,9.82
2022-09-26T14:34:26.507Z,7.25
2022-09-26T14:36:59.182Z,5.07
2022-09-26T14:39:34.258Z,7.70
2022-09-26T14:42:19.525Z,5.90
2022-09-26T14:44:59.462Z,3.28
2022-09-26T14:47:30.382Z,3.58
2022-09-26T14:50:04.272Z,3.63
2022-09-26T14:52:33.968Z,3.75
2022-09-26T14:55:06.999Z,2.78
2022-09-26T14:57:37.589Z,2.90
2022-09-26T15:00:40.357Z,4.20
2022-09-26T15:03:16.453Z,4.43
2022-09-26T15:05:45.976Z,3.47
2022-09-26T15:08:25.697Z,6.35
2022-09-26T15:10:56.913Z,2.63
2022-09-26T15:13:35.343Z,8.45
2022-09-26T15:16:20.571Z,3.60
2022-09-26T15:18:55.436Z,2.65
2022-09-26T15:21:29.454Z,5.22
2022-09-26T15:23:58.704Z,3.90
2022-09-26T15:26:29.617Z,3.75
2022-09-26T15:28:59.204Z,7.80
2022-09-26T15:31:37.785Z,4.78
2022-09-26T15:34:12.420Z,3.72
2022-09-26T15:36:42.297Z,3.42
2022-09-26T15:39:39.230Z,5.68
2022-09-26T15:42:39.802Z,4.07
2022-09-26T15:45:23.189Z,5.88
2022-09-26T15:47:53.677Z,5.82
2022-09-26T15:50:27.252Z,2.90
2022-09-26T15:53:01.120Z,4.95
2022-09-26T15:55:34.595Z,2.53
2022-09-26T15:58:07.940Z,4.20
2022-09-26T16:00:38.813Z,6.95
2022-09-26T16:03:35.327Z,3.47
2022-09-26T16:06:09.849Z,3.15
2022-09-26T16:08:42.550Z,3.88
2022-09-26T16:11:11.425Z,6.35
2022-09-26T16:13:46.244Z,3.90
2022-09-26T16:16:19.631Z,4.82
2022-09-26T16:18:55.718Z,5.05
2022-09-26T16:21:26.877Z,4.47
2022-09-26T16:23:56.788Z,3.72
2022-09-26T16:26:31.275Z,5.38
2022-09-26T16:29:00.678Z,5.28
2022-09-26T16:31:34.315Z,5.00
2022-09-26T16:34:06.890Z,5.80
2022-09-26T16:36:35.961Z,3.92
2022-09-26T16:39:13.013Z,4.75
2022-09-26T16:44:36.620Z,4.43
2022-09-26T16:47:09.046Z,4.55
2022-09-26T16:49:46.764Z,4.47
2022-09-26T16:52:34.666Z,5.10
2022-09-26T16:55:05.946Z,5.82
2022-09-26T16:57:37.830Z,5.57
2022-09-26T17:00:27.145Z,2.72
2022-09-26T17:02:55.873Z,4.70
2022-09-26T17:05:25.908Z,3.97
2022-09-26T17:07:54.461Z,6.95
2022-09-26T17:10:26.389Z,6.07
2022-09-26T17:12:56.253Z,4.60
2022-09-26T17:15:30.360Z,4.00
2022-09-26T17:18:01.254Z,3.63
2022-09-26T17:20:31.378Z,3.50
2022-09-26T17:23:08.020Z,3.40
2022-09-26T17:25:52.939Z,4.70
2022-09-26T17:28:30.573Z,3.83
2022-09-26T17:31:06.101Z,3.83
2022-09-26T17:33:37.810Z,5.65
2022-09-26T17:36:10.771Z,5.00
2022-09-26T17:38:40.283Z,7.13
2022-09-26T17:41:12.472Z,4.25
2022-09-26T17:43:42.642Z,3.42
2022-09-26T17:46:15.385Z,7.65
2022-09-26T17:48:45.434Z,5.50
2022-09-26T17:51:15.421Z,7.57
2022-09-26T17:53:50.601Z,4.20
2022-09-26T17:56:20.316Z,4.55
2022-09-26T17:58:51.279Z,6.00
2022-09-26T18:01:23.335Z,4.55
2022-09-26T18:03:55.321Z,4.00
2022-09-26T18:06:27.394Z,4.30
2022-09-26T18:08:58.261Z,4.40
2022-09-26T18:11:27.088Z,5.50
2022-09-26T18:13:56.877Z,6.53
2022-09-26T18:16:25.944Z,4.05
2022-09-26T18:18:54.840Z,4.05
2022-09-26T18:21:26.379Z,4.53
2022-09-26T18:24:00.861Z,4.25
2022-09-26T18:26:32.579Z,3.13
2022-09-26T18:29:06.382Z,3.78
2022-09-26T18:31:37.765Z,4.93
2022-09-26T18:34:13.408Z,4.28
2022-09-26T18:36:43.567Z,3.42
2022-09-26T18:39:12.185Z,4.68
2022-09-26T18:41:41.366Z,5.20
2022-09-26T18:44:14.976Z,3.50
2022-09-26T18:46:46.171Z,3.85
2022-09-26T18:49:15.366Z,4.30
2022-09-26T18:51:45.838Z,2.90
2022-09-26T18:54:16.426Z,2.63
2022-09-26T18:57:03.050Z,2.25
2022-09-26T18:59:32.184Z,4.57
2022-09-26T19:02:02.645Z,5.50
2022-09-26T19:04:32.097Z,3.53
2022-09-26T19:07:06.370Z,4.70
2022-09-26T19:09:37.853Z,2.97
2022-09-26T19:12:07.875Z,3.38
2022-09-26T19:14:36.586Z,2.13
2022-09-26T19:17:05.332Z,1.45
2022-09-26T19:19:34.157Z,1.73
2022-09-26T19:22:09.934Z,2.38
2022-09-26T19:24:40.968Z,1.65
2022-09-26T19:27:14.879Z,1.23
2022-09-26T19:29:45.813Z,1.88
2022-09-26T19:32:20.518Z,1.50
2022-09-26T19:34:53.450Z,1.77
2022-09-26T19:37:23.549Z,1.80
2022-09-26T19:39:52.156Z,1.88
2022-09-26T19:42:20.825Z,2.75
2022-09-26T19:44:50.937Z,4.63
2022-09-26T19:47:21.894Z,1.73
2022-09-26T19:49:53.040Z,2.80
2022-09-26T19:52:23.808Z,1.33
2022-09-26T19:54:52.476Z,2.00
2022-09-26T19:57:22.534Z,1.92
2022-09-26T19:59:51.643Z,2.40
2022-09-26T20:02:22.701Z,2.03
2022-09-26T20:04:52.561Z,1.95
2022-09-26T20:07:21.320Z,1.70
2022-09-26T20:09:51.217Z,1.00
2022-09-26T20:12:19.829Z,1.45
2022-09-26T20:14:48.372Z,0.75
2022-09-26T20:17:23.066Z,0.90
2022-09-26T20:19:57.770Z,6.50
2022-09-26T20:22:27.647Z,1.05
2022-09-26T20:24:57.575Z,1.08
2022-09-26T20:27:28.999Z,3.80
2022-09-26T20:30:15.467Z,1.15
2022-09-26T20:32:44.043Z,0.80
2022-09-26T20:35:15.560Z,1.10
2022-09-26T20:37:44.868Z,1.02
2022-09-26T20:40:19.333Z,2.03
2022-09-26T20:42:50.140Z,1.00
2022-09-26T20:45:29.627Z,0.80
2022-09-26T20:48:00.143Z,1.52
2022-09-26T20:50:34.127Z,1.83
2022-09-26T20:53:03.210Z,1.00
2022-09-26T20:55:33.272Z,2.40
2022-09-26T20:58:01.928Z,2.20
2022-09-26T21:00:32.250Z,1.33
2022-09-26T21:03:00.966Z,2.45
2022-09-26T21:05:29.661Z,2.97
2022-09-26T21:07:59.860Z,1.23
2022-09-26T21:10:30.491Z,1.48
2022-09-26T21:13:01.528Z,1.27
2022-09-26T21:15:32.552Z,1.75
2022-09-26T21:18:02.287Z,1.40
2022-09-26T21:20:34.462Z,2.63
2022-09-26T21:23:30.902Z,2.55
2022-09-26T21:25:59.526Z,2.90
2022-09-26T21:28:29.708Z,6.25
2022-09-26T21:31:03.410Z,1.95
2022-09-26T21:33:32.146Z,3.00
2022-09-26T21:36:00.712Z,7.03
2022-09-26T21:38:29.293Z,2.10
2022-09-26T21:41:00.725Z,3.35
2022-09-26T21:43:37.351Z,2.97
2022-09-26T21:46:06.876Z,2.38
2022-09-26T21:48:35.625Z,9.32
2022-09-26T21:51:05.005Z,6.10
2022-09-26T21:53:38.780Z,7.07
2022-09-26T21:56:14.573Z,5.05
2022-09-26T21:58:45.381Z,8.40
2022-09-26T22:01:14.730Z,7.32
2022-09-26T22:03:43.345Z,9.20
2022-09-26T22:06:11.993Z,6.60
2022-09-26T22:08:41.484Z,10.38
2022-09-26T22:11:10.550Z,11.55
2022-09-26T22:13:39.522Z,7.07
2022-09-26T22:16:11.161Z,8.10
2022-09-26T22:18:40.885Z,7.30
2022-09-26T22:21:11.371Z,11.00
2022-09-26T22:23:40.092Z,10.23
2022-09-26T22:26:09.390Z,7.88
2022-09-26T22:28:37.918Z,7.95
2022-09-26T22:31:06.710Z,6.43
2022-09-26T22:33:36.779Z,9.27
2022-09-26T22:36:06.161Z,4.32
2022-09-26T22:38:35.190Z,7.93
2022-09-26T22:41:05.480Z,7.88
2022-09-26T22:43:34.992Z,6.32
2022-09-26T22:46:04.676Z,4.55
2022-09-26T22:48:34.661Z,8.95
2022-09-26T22:51:05.119Z,6.32
2022-09-26T22:53:34.826Z,6.55
2022-09-26T22:56:05.273Z,7.13
2022-09-26T22:58:36.583Z,6.32
2022-09-26T23:01:06.784Z,6.43
2022-09-26T23:03:35.606Z,9.50
2022-09-26T23:06:06.196Z,8.18
2022-09-26T23:08:35.462Z,11.40
2022-09-26T23:11:05.613Z,7.05
2022-09-26T23:13:35.450Z,3.88
2022-09-26T23:16:06.302Z,5.00
2022-09-26T23:18:36.028Z,8.77
2022-09-26T23:21:11.409Z,5.50
2022-09-26T23:23:42.826Z,9.40
2022-09-26T23:26:16.597Z,6.03
2022-09-26T23:28:45.291Z,8.15
2022-09-26T23:31:13.940Z,8.00
2022-09-26T23:33:42.920Z,6.90
2022-09-26T23:36:13.109Z,6.85
2022-09-26T23:38:42.609Z,7.47
2022-09-26T23:41:13.049Z,8.05
2022-09-26T23:43:42.162Z,6.07
2022-09-26T23:46:11.358Z,5.85
2022-09-26T23:48:40.417Z,4.70
2022-09-26T23:51:09.452Z,5.57
2022-09-26T23:53:39.479Z,4.97
2022-09-26T23:56:10.089Z,4.25
2022-09-26T23:58:39.605Z,4.22
